sensor_id;sensor_type;location;lat;lon;timestamp;P1;durP1;ratioP1;P2;durP2;ratioP2
20637;SDS011;10478;49.004;8.470;2024-03-02T00:02:10;13.55;;;5.82;;
20637;SDS011;10478;49.004;8.470;2024-03-02T00:04:36;10.75;;;5.65;;
20637;SDS011;10478;49.004;8.470;2024-03-02T00:07:02;11.48;;;5.82;;
20637;SDS011;10478;49.004;8.470;2024-03-02T00:09:27;8.88;;;5.60;;
20637;SDS011;10478;49.004;8.470;2024-03-02T00:11:54;15.25;;;6.97;;
20637;SDS011;10478;49.004;8.470;2024-03-02T00:14:19;10.25;;;6.05;;
20637;SDS011;10478;49.004;8.470;2024-03-02T00:16:44;12.20;;;5.82;;
20637;SDS011;10478;49.004;8.470;2024-03-02T00:19:10;9.68;;;5.88;;
20637;SDS011;10478;49.004;8.470;2024-03-02T00:21:35;9.23;;;5.85;;
20637;SDS011;10478;49.004;8.470;2024-03-02T00:24:01;11.45;;;5.82;;
20637;SDS011;10478;49.004;8.470;2024-03-02T00:26:32;11.88;;;6.40;;
20637;SDS011;10478;49.004;8.470;2024-03-02T00:28:58;11.45;;;6.30;;
20637;SDS011;10478;49.004;8.470;2024-03-02T00:31:24;9.98;;;5.95;;
20637;SDS011;10478;49.004;8.470;2024-03-02T00:33:50;13.20;;;5.88;;
20637;SDS011;10478;49.004;8.470;2024-03-02T00:36:16;12.30;;;6.07;;
20637;SDS011;10478;49.004;8.470;2024-03-02T00:38:48;11.80;;;5.47;;
20637;SDS011;10478;49.004;8.470;2024-03-02T00:46:29;10.75;;;5.65;;
20637;SDS011;10478;49.004;8.470;2024-03-02T00:49:00;9.57;;;5.25;;
20637;SDS011;10478;49.004;8.470;2024-03-02T00:51:27;9.48;;;6.00;;
20637;SDS011;10478;49.004;8.470;2024-03-02T00:53:55;11.25;;;5.35;;
20637;SDS011;10478;49.004;8.470;2024-03-02T00:56:24;10.77;;;5.70;;
20637;SDS011;10478;49.004;8.470;2024-03-02T00:58:50;10.75;;;6.38;;
20637;SDS011;10478;49.004;8.470;2024-03-02T01:01:18;8.43;;;4.78;;
20637;SDS011;10478;49.004;8.470;2024-03-02T01:03:44;8.45;;;4.57;;
20637;SDS011;10478;49.004;8.470;2024-03-02T01:06:10;7.43;;;4.18;;
20637;SDS011;10478;49.004;8.470;2024-03-02T01:08:35;11.65;;;5.18;;
20637;SDS011;10478;49.004;8.470;2024-03-02T01:11:01;5.45;;;3.30;;
20637;SDS011;10478;49.004;8.470;2024-03-02T01:13:27;7.60;;;3.63;;
20637;SDS011;10478;49.004;8.470;2024-03-02T01:15:52;4.18;;;2.53;;
20637;SDS011;10478;49.004;8.470;2024-03-02T01:18:18;7.00;;;3.25;;
20637;SDS011;10478;49.004;8.470;2024-03-02T01:20:43;3.83;;;2.33;;
20637;SDS011;10478;49.004;8.470;2024-03-02T01:23:08;6.78;;;3.13;;
20637;SDS011;10478;49.004;8.470;2024-03-02T01:25:34;5.38;;;2.42;;
20637;SDS011;10478;49.004;8.470;2024-03-02T01:28:00;6.15;;;2.35;;
20637;SDS011;10478;49.004;8.470;2024-03-02T01:30:26;3.72;;;2.08;;
20637;SDS011;10478;49.004;8.470;2024-03-02T01:32:51;5.68;;;2.13;;
20637;SDS011;10478;49.004;8.470;2024-03-02T01:35:16;3.72;;;2.40;;
20637;SDS011;10478;49.004;8.470;2024-03-02T01:37:42;6.97;;;2.35;;
20637;SDS011;10478;49.004;8.470;2024-03-02T01:40:07;4.32;;;2.20;;
20637;SDS011;10478;49.004;8.470;2024-03-02T01:42:37;3.63;;;1.88;;
20637;SDS011;10478;49.004;8.470;2024-03-02T01:45:07;3.97;;;2.28;;
20637;SDS011;10478;49.004;8.470;2024-03-02T01:47:33;4.03;;;2.33;;
20637;SDS011;10478;49.004;8.470;2024-03-02T01:49:58;6.90;;;2.00;;
20637;SDS011;10478;49.004;8.470;2024-03-02T01:52:24;3.58;;;2.38;;
20637;SDS011;10478;49.004;8.470;2024-03-02T01:54:49;4.43;;;2.20;;
20637;SDS011;10478;49.004;8.470;2024-03-02T01:57:15;7.00;;;2.70;;
20637;SDS011;10478;49.004;8.470;2024-03-02T01:59:40;6.45;;;2.42;;
20637;SDS011;10478;49.004;8.470;2024-03-02T02:02:06;5.60;;;3.15;;
20637;SDS011;10478;49.004;8.470;2024-03-02T02:04:31;5.78;;;3.28;;
20637;SDS011;10478;49.004;8.470;2024-03-02T02:06:56;6.47;;;3.33;;
20637;SDS011;10478;49.004;8.470;2024-03-02T02:09:22;8.13;;;3.63;;
20637;SDS011;10478;49.004;8.470;2024-03-02T02:11:47;7.38;;;3.92;;
20637;SDS011;10478;49.004;8.470;2024-03-02T02:14:12;7.72;;;3.38;;
20637;SDS011;10478;49.004;8.470;2024-03-02T02:16:38;4.53;;;3.03;;
20637;SDS011;10478;49.004;8.470;2024-03-02T02:19:03;7.07;;;3.63;;
20637;SDS011;10478;49.004;8.470;2024-03-02T02:21:28;10.57;;;4.28;;
20637;SDS011;10478;49.004;8.470;2024-03-02T02:23:54;10.23;;;4.25;;
20637;SDS011;10478;49.004;8.470;2024-03-02T02:26:19;9.20;;;4.47;;
20637;SDS011;10478;49.004;8.470;2024-03-02T02:28:44;11.00;;;4.53;;
20637;SDS011;10478;49.004;8.470;2024-03-02T02:31:15;7.40;;;4.40;;
20637;SDS011;10478;49.004;8.470;2024-03-02T02:33:41;7.18;;;4.68;;
20637;SDS011;10478;49.004;8.470;2024-03-02T02:36:06;9.00;;;4.70;;
20637;SDS011;10478;49.004;8.470;2024-03-02T02:38:32;8.75;;;4.60;;
20637;SDS011;10478;49.004;8.470;2024-03-02T02:40:58;8.95;;;4.72;;
20637;SDS011;10478;49.004;8.470;2024-03-02T02:43:23;8.45;;;4.75;;
20637;SDS011;10478;49.004;8.470;2024-03-02T02:45:49;7.00;;;4.43;;
20637;SDS011;10478;49.004;8.470;2024-03-02T02:48:14;8.30;;;4.75;;
20637;SDS011;10478;49.004;8.470;2024-03-02T02:50:39;9.93;;;4.20;;
20637;SDS011;10478;49.004;8.470;2024-03-02T02:53:05;7.82;;;5.07;;
20637;SDS011;10478;49.004;8.470;2024-03-02T02:55:31;10.25;;;6.28;;
20637;SDS011;10478;49.004;8.470;2024-03-02T02:57:56;9.00;;;4.28;;
20637;SDS011;10478;49.004;8.470;2024-03-02T03:00:21;6.80;;;4.28;;
20637;SDS011;10478;49.004;8.470;2024-03-02T03:02:48;5.60;;;3.63;;
20637;SDS011;10478;49.004;8.470;2024-03-02T03:05:14;11.57;;;4.18;;
20637;SDS011;10478;49.004;8.470;2024-03-02T03:07:40;8.30;;;4.53;;
20637;SDS011;10478;49.004;8.470;2024-03-02T03:10:06;6.97;;;4.13;;
20637;SDS011;10478;49.004;8.470;2024-03-02T03:12:32;7.55;;;4.43;;
20637;SDS011;10478;49.004;8.470;2024-03-02T03:14:58;10.02;;;4.45;;
20637;SDS011;10478;49.004;8.470;2024-03-02T03:17:24;12.02;;;4.72;;
20637;SDS011;10478;49.004;8.470;2024-03-02T03:19:50;11.07;;;5.10;;
20637;SDS011;10478;49.004;8.470;2024-03-02T03:22:15;7.95;;;4.75;;
20637;SDS011;10478;49.004;8.470;2024-03-02T03:24:41;9.80;;;4.47;;
20637;SDS011;10478;49.004;8.470;2024-03-02T03:27:06;9.63;;;4.15;;
20637;SDS011;10478;49.004;8.470;2024-03-02T03:29:31;5.55;;;3.97;;
20637;SDS011;10478;49.004;8.470;2024-03-02T03:31:57;7.65;;;3.80;;
20637;SDS011;10478;49.004;8.470;2024-03-02T03:34:22;9.02;;;4.03;;
20637;SDS011;10478;49.004;8.470;2024-03-02T03:36:47;6.43;;;3.72;;
20637;SDS011;10478;49.004;8.470;2024-03-02T03:39:13;7.68;;;3.95;;
20637;SDS011;10478;49.004;8.470;2024-03-02T03:41:38;7.78;;;4.60;;
20637;SDS011;10478;49.004;8.470;2024-03-02T03:44:05;6.82;;;3.33;;
20637;SDS011;10478;49.004;8.470;2024-03-02T03:46:30;7.97;;;3.88;;
20637;SDS011;10478;49.004;8.470;2024-03-02T03:48:56;7.63;;;4.05;;
20637;SDS011;10478;49.004;8.470;2024-03-02T03:51:21;7.80;;;4.10;;
20637;SDS011;10478;49.004;8.470;2024-03-02T03:53:47;6.00;;;3.05;;
20637;SDS011;10478;49.004;8.470;2024-03-02T03:56:13;6.88;;;3.92;;
20637;SDS011;10478;49.004;8.470;2024-03-02T03:58:38;6.25;;;3.83;;
20637;SDS011;10478;49.004;8.470;2024-03-02T04:01:04;7.72;;;3.35;;
20637;SDS011;10478;49.004;8.470;2024-03-02T04:03:29;8.50;;;3.97;;
20637;SDS011;10478;49.004;8.470;2024-03-02T04:05:55;8.80;;;4.20;;
20637;SDS011;10478;49.004;8.470;2024-03-02T04:08:20;6.18;;;3.67;;
20637;SDS011;10478;49.004;8.470;2024-03-02T04:10:46;6.22;;;3.17;;
20637;SDS011;10478;49.004;8.470;2024-03-02T04:13:11;5.78;;;3.13;;
20637;SDS011;10478;49.004;8.470;2024-03-02T04:15:37;5.68;;;3.45;;
20637;SDS011;10478;49.004;8.470;2024-03-02T04:18:02;5.72;;;3.17;;
20637;SDS011;10478;49.004;8.470;2024-03-02T04:20:27;7.53;;;3.83;;
20637;SDS011;10478;49.004;8.470;2024-03-02T04:22:53;11.05;;;7.38;;
20637;SDS011;10478;49.004;8.470;2024-03-02T04:25:18;15.32;;;11.15;;
20637;SDS011;10478;49.004;8.470;2024-03-02T04:27:44;13.98;;;9.85;;
20637;SDS011;10478;49.004;8.470;2024-03-02T04:30:10;9.63;;;8.30;;
20637;SDS011;10478;49.004;8.470;2024-03-02T04:32:35;10.95;;;9.15;;
20637;SDS011;10478;49.004;8.470;2024-03-02T04:35:01;11.50;;;9.82;;
20637;SDS011;10478;49.004;8.470;2024-03-02T04:37:26;11.57;;;9.18;;
20637;SDS011;10478;49.004;8.470;2024-03-02T04:39:52;10.73;;;9.52;;
20637;SDS011;10478;49.004;8.470;2024-03-02T04:42:17;13.85;;;9.68;;
20637;SDS011;10478;49.004;8.470;2024-03-02T04:44:42;12.05;;;9.55;;
20637;SDS011;10478;49.004;8.470;2024-03-02T04:47:08;12.35;;;9.15;;
20637;SDS011;10478;49.004;8.470;2024-03-02T04:49:33;13.85;;;8.98;;
20637;SDS011;10478;49.004;8.470;2024-03-02T04:51:58;10.80;;;6.40;;
20637;SDS011;10478;49.004;8.470;2024-03-02T04:54:23;9.70;;;5.90;;
20637;SDS011;10478;49.004;8.470;2024-03-02T04:56:49;8.52;;;5.63;;
20637;SDS011;10478;49.004;8.470;2024-03-02T04:59:18;7.90;;;6.10;;
20637;SDS011;10478;49.004;8.470;2024-03-02T05:01:43;7.55;;;5.32;;
20637;SDS011;10478;49.004;8.470;2024-03-02T05:04:09;7.60;;;5.22;;
20637;SDS011;10478;49.004;8.470;2024-03-02T05:06:36;10.00;;;5.30;;
20637;SDS011;10478;49.004;8.470;2024-03-02T05:09:08;8.82;;;5.93;;
20637;SDS011;10478;49.004;8.470;2024-03-02T05:11:33;7.85;;;4.72;;
20637;SDS011;10478;49.004;8.470;2024-03-02T05:14:01;8.57;;;5.05;;
20637;SDS011;10478;49.004;8.470;2024-03-02T05:16:27;7.85;;;4.72;;
20637;SDS011;10478;49.004;8.470;2024-03-02T05:18:52;8.27;;;5.13;;
20637;SDS011;10478;49.004;8.470;2024-03-02T05:21:17;6.47;;;5.00;;
20637;SDS011;10478;49.004;8.470;2024-03-02T05:23:43;7.50;;;4.55;;
20637;SDS011;10478;49.004;8.470;2024-03-02T05:26:09;4.10;;;2.63;;
20637;SDS011;10478;49.004;8.470;2024-03-02T05:28:36;3.55;;;2.58;;
20637;SDS011;10478;49.004;8.470;2024-03-02T05:31:01;3.17;;;2.63;;
20637;SDS011;10478;49.004;8.470;2024-03-02T05:33:29;5.00;;;2.30;;
20637;SDS011;10478;49.004;8.470;2024-03-02T05:35:56;4.85;;;2.42;;
20637;SDS011;10478;49.004;8.470;2024-03-02T05:38:22;3.00;;;1.85;;
20637;SDS011;10478;49.004;8.470;2024-03-02T05:40:47;3.97;;;1.92;;
20637;SDS011;10478;49.004;8.470;2024-03-02T05:43:13;4.30;;;2.20;;
20637;SDS011;10478;49.004;8.470;2024-03-02T05:45:38;5.60;;;2.85;;
20637;SDS011;10478;49.004;8.470;2024-03-02T05:48:04;7.45;;;2.85;;
20637;SDS011;10478;49.004;8.470;2024-03-02T05:50:31;7.88;;;4.53;;
20637;SDS011;10478;49.004;8.470;2024-03-02T05:52:56;6.80;;;3.00;;
20637;SDS011;10478;49.004;8.470;2024-03-02T05:55:21;6.75;;;3.40;;
20637;SDS011;10478;49.004;8.470;2024-03-02T05:57:47;7.03;;;3.15;;
20637;SDS011;10478;49.004;8.470;2024-03-02T06:00:24;9.13;;;3.75;;
20637;SDS011;10478;49.004;8.470;2024-03-02T06:02:49;3.83;;;3.00;;
20637;SDS011;10478;49.004;8.470;2024-03-02T06:05:15;6.38;;;3.35;;
20637;SDS011;10478;49.004;8.470;2024-03-02T06:07:41;7.63;;;3.33;;
20637;SDS011;10478;49.004;8.470;2024-03-02T06:10:08;5.00;;;3.47;;
20637;SDS011;10478;49.004;8.470;2024-03-02T06:12:33;4.25;;;2.88;;
20637;SDS011;10478;49.004;8.470;2024-03-02T06:14:59;4.97;;;2.95;;
20637;SDS011;10478;49.004;8.470;2024-03-02T06:17:24;4.97;;;2.65;;
20637;SDS011;10478;49.004;8.470;2024-03-02T06:19:49;3.47;;;2.10;;
20637;SDS011;10478;49.004;8.470;2024-03-02T06:22:15;6.72;;;2.80;;
20637;SDS011;10478;49.004;8.470;2024-03-02T06:24:40;3.97;;;2.42;;
20637;SDS011;10478;49.004;8.470;2024-03-02T06:27:05;6.78;;;3.17;;
20637;SDS011;10478;49.004;8.470;2024-03-02T06:29:34;5.70;;;3.08;;
20637;SDS011;10478;49.004;8.470;2024-03-02T06:31:59;4.97;;;2.88;;
20637;SDS011;10478;49.004;8.470;2024-03-02T06:34:25;4.55;;;2.75;;
20637;SDS011;10478;49.004;8.470;2024-03-02T06:36:50;5.38;;;3.13;;
20637;SDS011;10478;49.004;8.470;2024-03-02T06:39:15;36.22;;;17.10;;
20637;SDS011;10478;49.004;8.470;2024-03-02T06:41:43;16.55;;;7.60;;
20637;SDS011;10478;49.004;8.470;2024-03-02T06:44:08;24.55;;;13.23;;
20637;SDS011;10478;49.004;8.470;2024-03-02T06:46:33;9.60;;;5.03;;
20637;SDS011;10478;49.004;8.470;2024-03-02T06:48:59;5.60;;;3.67;;
20637;SDS011;10478;49.004;8.470;2024-03-02T06:51:24;6.25;;;3.13;;
20637;SDS011;10478;49.004;8.470;2024-03-02T06:53:49;5.78;;;2.88;;
20637;SDS011;10478;49.004;8.470;2024-03-02T06:56:15;4.35;;;2.75;;
20637;SDS011;10478;49.004;8.470;2024-03-02T06:58:40;4.05;;;2.63;;
20637;SDS011;10478;49.004;8.470;2024-03-02T07:01:05;5.85;;;3.08;;
20637;SDS011;10478;49.004;8.470;2024-03-02T07:03:31;4.35;;;2.45;;
20637;SDS011;10478;49.004;8.470;2024-03-02T07:05:57;6.10;;;2.92;;
20637;SDS011;10478;49.004;8.470;2024-03-02T07:08:23;5.82;;;2.67;;
20637;SDS011;10478;49.004;8.470;2024-03-02T07:10:50;5.57;;;3.58;;
20637;SDS011;10478;49.004;8.470;2024-03-02T07:13:16;6.93;;;2.63;;
20637;SDS011;10478;49.004;8.470;2024-03-02T07:15:41;5.97;;;2.65;;
20637;SDS011;10478;49.004;8.470;2024-03-02T07:18:29;2.80;;;2.20;;
20637;SDS011;10478;49.004;8.470;2024-03-02T07:21:07;3.22;;;2.20;;
20637;SDS011;10478;49.004;8.470;2024-03-02T07:23:32;4.47;;;2.63;;
20637;SDS011;10478;49.004;8.470;2024-03-02T07:25:57;3.85;;;2.33;;
20637;SDS011;10478;49.004;8.470;2024-03-02T07:28:24;4.18;;;2.15;;
20637;SDS011;10478;49.004;8.470;2024-03-02T07:31:00;4.78;;;2.50;;
20637;SDS011;10478;49.004;8.470;2024-03-02T07:33:29;4.85;;;2.78;;
20637;SDS011;10478;49.004;8.470;2024-03-02T07:35:55;5.53;;;3.13;;
20637;SDS011;10478;49.004;8.470;2024-03-02T07:38:20;4.93;;;3.10;;
20637;SDS011;10478;49.004;8.470;2024-03-02T07:40:46;7.68;;;2.60;;
20637;SDS011;10478;49.004;8.470;2024-03-02T07:43:12;4.90;;;3.80;;
20637;SDS011;10478;49.004;8.470;2024-03-02T07:45:37;4.38;;;2.67;;
20637;SDS011;10478;49.004;8.470;2024-03-02T07:48:02;4.05;;;2.70;;
20637;SDS011;10478;49.004;8.470;2024-03-02T07:50:30;4.60;;;2.45;;
20637;SDS011;10478;49.004;8.470;2024-03-02T07:52:56;5.97;;;2.95;;
20637;SDS011;10478;49.004;8.470;2024-03-02T07:55:21;4.03;;;3.05;;
20637;SDS011;10478;49.004;8.470;2024-03-02T07:57:48;3.85;;;2.55;;
20637;SDS011;10478;49.004;8.470;2024-03-02T08:00:14;6.40;;;3.03;;
20637;SDS011;10478;49.004;8.470;2024-03-02T08:02:40;5.15;;;3.35;;
20637;SDS011;10478;49.004;8.470;2024-03-02T08:05:07;6.32;;;2.70;;
20637;SDS011;10478;49.004;8.470;2024-03-02T08:07:32;5.78;;;2.78;;
20637;SDS011;10478;49.004;8.470;2024-03-02T08:09:58;7.18;;;3.30;;
20637;SDS011;10478;49.004;8.470;2024-03-02T08:12:23;4.50;;;2.85;;
20637;SDS011;10478;49.004;8.470;2024-03-02T08:14:48;3.38;;;2.40;;
20637;SDS011;10478;49.004;8.470;2024-03-02T08:17:14;4.63;;;2.50;;
20637;SDS011;10478;49.004;8.470;2024-03-02T08:19:39;4.07;;;2.10;;
20637;SDS011;10478;49.004;8.470;2024-03-02T08:22:07;6.22;;;3.17;;
20637;SDS011;10478;49.004;8.470;2024-03-02T08:24:32;4.72;;;2.45;;
20637;SDS011;10478;49.004;8.470;2024-03-02T08:26:58;7.53;;;3.42;;
20637;SDS011;10478;49.004;8.470;2024-03-02T08:29:24;5.82;;;2.67;;
20637;SDS011;10478;49.004;8.470;2024-03-02T08:31:50;4.70;;;2.97;;
20637;SDS011;10478;49.004;8.470;2024-03-02T08:34:15;7.13;;;3.50;;
20637;SDS011;10478;49.004;8.470;2024-03-02T08:36:40;5.40;;;2.67;;
20637;SDS011;10478;49.004;8.470;2024-03-02T08:39:06;5.80;;;2.90;;
20637;SDS011;10478;49.004;8.470;2024-03-02T08:41:37;7.15;;;3.50;;
20637;SDS011;10478;49.004;8.470;2024-03-02T08:44:03;6.30;;;3.53;;
20637;SDS011;10478;49.004;8.470;2024-03-02T08:46:28;3.97;;;3.15;;
20637;SDS011;10478;49.004;8.470;2024-03-02T08:48:53;9.00;;;5.13;;
20637;SDS011;10478;49.004;8.470;2024-03-02T08:51:19;5.90;;;3.72;;
20637;SDS011;10478;49.004;8.470;2024-03-02T08:53:44;5.38;;;2.97;;
20637;SDS011;10478;49.004;8.470;2024-03-02T08:56:09;6.72;;;3.17;;
20637;SDS011;10478;49.004;8.470;2024-03-02T08:58:35;8.48;;;3.55;;
20637;SDS011;10478;49.004;8.470;2024-03-02T09:01:00;33.95;;;12.60;;
20637;SDS011;10478;49.004;8.470;2024-03-02T09:03:25;5.65;;;2.83;;
20637;SDS011;10478;49.004;8.470;2024-03-02T09:05:51;4.53;;;2.60;;
20637;SDS011;10478;49.004;8.470;2024-03-02T09:08:16;5.15;;;2.78;;
20637;SDS011;10478;49.004;8.470;2024-03-02T09:10:41;4.43;;;2.55;;
20637;SDS011;10478;49.004;8.470;2024-03-02T09:13:07;3.17;;;2.08;;
20637;SDS011;10478;49.004;8.470;2024-03-02T09:15:32;3.55;;;1.83;;
20637;SDS011;10478;49.004;8.470;2024-03-02T09:17:58;3.55;;;2.25;;
20637;SDS011;10478;49.004;8.470;2024-03-02T09:20:23;5.05;;;2.55;;
20637;SDS011;10478;49.004;8.470;2024-03-02T09:22:48;12.45;;;6.68;;
20637;SDS011;10478;49.004;8.470;2024-03-02T09:25:14;6.97;;;3.47;;
20637;SDS011;10478;49.004;8.470;2024-03-02T09:27:39;10.52;;;5.40;;
20637;SDS011;10478;49.004;8.470;2024-03-02T09:30:07;8.55;;;4.70;;
20637;SDS011;10478;49.004;8.470;2024-03-02T09:32:33;2.60;;;2.10;;
20637;SDS011;10478;49.004;8.470;2024-03-02T09:34:58;6.03;;;2.40;;
20637;SDS011;10478;49.004;8.470;2024-03-02T09:37:23;7.78;;;4.88;;
20637;SDS011;10478;49.004;8.470;2024-03-02T09:39:49;7.72;;;4.70;;
20637;SDS011;10478;49.004;8.470;2024-03-02T09:42:14;13.35;;;6.03;;
20637;SDS011;10478;49.004;8.470;2024-03-02T09:44:40;5.28;;;3.20;;
20637;SDS011;10478;49.004;8.470;2024-03-02T09:47:06;8.65;;;3.47;;
20637;SDS011;10478;49.004;8.470;2024-03-02T09:49:32;10.52;;;5.57;;
20637;SDS011;10478;49.004;8.470;2024-03-02T09:51:57;4.60;;;2.83;;
20637;SDS011;10478;49.004;8.470;2024-03-02T09:54:22;6.70;;;3.50;;
20637;SDS011;10478;49.004;8.470;2024-03-02T09:56:48;8.35;;;4.25;;
20637;SDS011;10478;49.004;8.470;2024-03-02T09:59:14;9.45;;;5.47;;
20637;SDS011;10478;49.004;8.470;2024-03-02T10:01:55;7.18;;;3.58;;
20637;SDS011;10478;49.004;8.470;2024-03-02T10:04:27;6.30;;;3.58;;
20637;SDS011;10478;49.004;8.470;2024-03-02T10:09:41;4.57;;;2.97;;
20637;SDS011;10478;49.004;8.470;2024-03-02T10:12:08;6.20;;;3.17;;
20637;SDS011;10478;49.004;8.470;2024-03-02T10:14:34;6.40;;;2.85;;
20637;SDS011;10478;49.004;8.470;2024-03-02T10:17:03;5.82;;;3.92;;
20637;SDS011;10478;49.004;8.470;2024-03-02T10:19:35;9.85;;;4.32;;
20637;SDS011;10478;49.004;8.470;2024-03-02T10:22:02;3.72;;;2.90;;
20637;SDS011;10478;49.004;8.470;2024-03-02T10:24:34;4.88;;;2.72;;
20637;SDS011;10478;49.004;8.470;2024-03-02T10:27:16;7.45;;;3.78;;
20637;SDS011;10478;49.004;8.470;2024-03-02T10:29:42;5.95;;;3.15;;
20637;SDS011;10478;49.004;8.470;2024-03-02T10:32:11;9.85;;;3.17;;
20637;SDS011;10478;49.004;8.470;2024-03-02T10:34:37;5.97;;;2.40;;
20637;SDS011;10478;49.004;8.470;2024-03-02T10:37:05;6.90;;;3.60;;
20637;SDS011;10478;49.004;8.470;2024-03-02T10:39:31;4.25;;;2.63;;
20637;SDS011;10478;49.004;8.470;2024-03-02T10:41:56;3.97;;;2.95;;
20637;SDS011;10478;49.004;8.470;2024-03-02T10:44:22;4.95;;;3.03;;
20637;SDS011;10478;49.004;8.470;2024-03-02T10:46:49;4.57;;;3.25;;
20637;SDS011;10478;49.004;8.470;2024-03-02T10:49:15;6.40;;;2.97;;
20637;SDS011;10478;49.004;8.470;2024-03-02T10:51:42;6.28;;;2.78;;
20637;SDS011;10478;49.004;8.470;2024-03-02T10:54:07;6.28;;;3.10;;
20637;SDS011;10478;49.004;8.470;2024-03-02T10:56:33;5.60;;;2.75;;
20637;SDS011;10478;49.004;8.470;2024-03-02T11:01:32;4.85;;;2.78;;
20637;SDS011;10478;49.004;8.470;2024-03-02T11:03:58;4.05;;;2.75;;
20637;SDS011;10478;49.004;8.470;2024-03-02T11:06:23;3.78;;;1.90;;
20637;SDS011;10478;49.004;8.470;2024-03-02T11:08:52;4.40;;;2.22;;
20637;SDS011;10478;49.004;8.470;2024-03-02T11:11:21;4.07;;;1.70;;
20637;SDS011;10478;49.004;8.470;2024-03-02T11:13:49;4.63;;;2.35;;
20637;SDS011;10478;49.004;8.470;2024-03-02T11:16:36;3.72;;;2.03;;
20637;SDS011;10478;49.004;8.470;2024-03-02T11:19:10;4.07;;;1.77;;
20637;SDS011;10478;49.004;8.470;2024-03-02T11:21:36;3.40;;;1.50;;
20637;SDS011;10478;49.004;8.470;2024-03-02T11:26:46;2.03;;;0.88;;
20637;SDS011;10478;49.004;8.470;2024-03-02T11:32:06;1.80;;;0.77;;
20637;SDS011;10478;49.004;8.470;2024-03-02T11:34:38;1.23;;;0.85;;
20637;SDS011;10478;49.004;8.470;2024-03-02T11:37:10;1.38;;;0.82;;
20637;SDS011;10478;49.004;8.470;2024-03-02T11:39:35;5.22;;;1.80;;
20637;SDS011;10478;49.004;8.470;2024-03-02T11:42:01;4.53;;;1.73;;
20637;SDS011;10478;49.004;8.470;2024-03-02T11:44:26;2.53;;;1.38;;
20637;SDS011;10478;49.004;8.470;2024-03-02T11:46:57;3.88;;;2.03;;
20637;SDS011;10478;49.004;8.470;2024-03-02T11:52:04;3.88;;;1.75;;
20637;SDS011;10478;49.004;8.470;2024-03-02T11:54:32;4.47;;;1.88;;
20637;SDS011;10478;49.004;8.470;2024-03-02T11:56:59;2.63;;;1.52;;
20637;SDS011;10478;49.004;8.470;2024-03-02T11:59:27;3.88;;;1.55;;
20637;SDS011;10478;49.004;8.470;2024-03-02T12:01:53;3.15;;;1.65;;
20637;SDS011;10478;49.004;8.470;2024-03-02T12:04:19;3.13;;;1.70;;
20637;SDS011;10478;49.004;8.470;2024-03-02T12:06:44;4.13;;;2.00;;
20637;SDS011;10478;49.004;8.470;2024-03-02T12:09:11;3.25;;;2.38;;
20637;SDS011;10478;49.004;8.470;2024-03-02T12:11:37;6.25;;;2.33;;
20637;SDS011;10478;49.004;8.470;2024-03-02T12:14:02;6.35;;;2.55;;
20637;SDS011;10478;49.004;8.470;2024-03-02T12:16:29;5.97;;;2.63;;
20637;SDS011;10478;49.004;8.470;2024-03-02T12:18:54;3.13;;;1.98;;
20637;SDS011;10478;49.004;8.470;2024-03-02T12:21:20;3.78;;;2.60;;
20637;SDS011;10478;49.004;8.470;2024-03-02T12:23:45;5.40;;;2.15;;
20637;SDS011;10478;49.004;8.470;2024-03-02T12:26:10;4.80;;;2.08;;
20637;SDS011;10478;49.004;8.470;2024-03-02T12:28:36;4.00;;;2.20;;
20637;SDS011;10478;49.004;8.470;2024-03-02T12:31:02;5.00;;;2.25;;
20637;SDS011;10478;49.004;8.470;2024-03-02T12:33:27;4.47;;;2.30;;
20637;SDS011;10478;49.004;8.470;2024-03-02T12:35:54;3.58;;;2.08;;
20637;SDS011;10478;49.004;8.470;2024-03-02T12:38:19;4.93;;;1.88;;
20637;SDS011;10478;49.004;8.470;2024-03-02T12:40:44;3.70;;;2.22;;
20637;SDS011;10478;49.004;8.470;2024-03-02T12:43:13;4.18;;;2.22;;
20637;SDS011;10478;49.004;8.470;2024-03-02T12:45:38;3.65;;;1.92;;
20637;SDS011;10478;49.004;8.470;2024-03-02T12:48:04;4.22;;;2.22;;
20637;SDS011;10478;49.004;8.470;2024-03-02T12:50:30;4.03;;;1.60;;
20637;SDS011;10478;49.004;8.470;2024-03-02T12:52:55;4.00;;;2.28;;
20637;SDS011;10478;49.004;8.470;2024-03-02T12:55:21;3.03;;;1.80;;
20637;SDS011;10478;49.004;8.470;2024-03-02T12:57:47;4.18;;;2.00;;
20637;SDS011;10478;49.004;8.470;2024-03-02T13:00:12;4.32;;;1.75;;
20637;SDS011;10478;49.004;8.470;2024-03-02T13:02:41;2.38;;;1.65;;
20637;SDS011;10478;49.004;8.470;2024-03-02T13:05:07;2.90;;;1.77;;
20637;SDS011;10478;49.004;8.470;2024-03-02T13:07:36;2.15;;;1.52;;
20637;SDS011;10478;49.004;8.470;2024-03-02T13:10:06;2.70;;;1.65;;
20637;SDS011;10478;49.004;8.470;2024-03-02T13:12:33;3.63;;;1.50;;
20637;SDS011;10478;49.004;8.470;2024-03-02T13:14:59;3.33;;;1.90;;
20637;SDS011;10478;49.004;8.470;2024-03-02T13:17:24;2.47;;;1.50;;
20637;SDS011;10478;49.004;8.470;2024-03-02T13:19:56;3.33;;;1.45;;
20637;SDS011;10478;49.004;8.470;2024-03-02T13:22:22;2.33;;;1.27;;
20637;SDS011;10478;49.004;8.470;2024-03-02T13:24:48;4.13;;;1.58;;
20637;SDS011;10478;49.004;8.470;2024-03-02T13:27:14;1.42;;;0.90;;
20637;SDS011;10478;49.004;8.470;2024-03-02T13:29:39;3.50;;;1.45;;
20637;SDS011;10478;49.004;8.470;2024-03-02T13:32:05;2.85;;;1.52;;
20637;SDS011;10478;49.004;8.470;2024-03-02T13:34:31;3.67;;;1.52;;
20637;SDS011;10478;49.004;8.470;2024-03-02T13:36:56;2.42;;;1.38;;
20637;SDS011;10478;49.004;8.470;2024-03-02T13:39:21;3.60;;;1.75;;
20637;SDS011;10478;49.004;8.470;2024-03-02T13:41:46;1.73;;;1.30;;
20637;SDS011;10478;49.004;8.470;2024-03-02T13:44:18;1.45;;;0.93;;
20637;SDS011;10478;49.004;8.470;2024-03-02T13:46:46;12.27;;;6.78;;
20637;SDS011;10478;49.004;8.470;2024-03-02T13:49:12;22.67;;;10.52;;
20637;SDS011;10478;49.004;8.470;2024-03-02T13:51:37;8.40;;;4.00;;
20637;SDS011;10478;49.004;8.470;2024-03-02T13:54:02;3.10;;;1.75;;
20637;SDS011;10478;49.004;8.470;2024-03-02T13:56:28;17.35;;;5.97;;
20637;SDS011;10478;49.004;8.470;2024-03-02T13:58:54;8.25;;;3.88;;
20637;SDS011;10478;49.004;8.470;2024-03-02T14:01:19;57.90;;;21.48;;
20637;SDS011;10478;49.004;8.470;2024-03-02T14:03:45;29.52;;;13.55;;
20637;SDS011;10478;49.004;8.470;2024-03-02T14:06:11;12.65;;;6.00;;
20637;SDS011;10478;49.004;8.470;2024-03-02T14:08:36;9.00;;;4.45;;
20637;SDS011;10478;49.004;8.470;2024-03-02T14:11:02;42.40;;;20.73;;
20637;SDS011;10478;49.004;8.470;2024-03-02T14:13:28;46.00;;;21.75;;
20637;SDS011;10478;49.004;8.470;2024-03-02T14:15:53;14.48;;;7.60;;
20637;SDS011;10478;49.004;8.470;2024-03-02T14:18:19;2.80;;;1.30;;
20637;SDS011;10478;49.004;8.470;2024-03-02T14:20:46;23.85;;;11.32;;
20637;SDS011;10478;49.004;8.470;2024-03-02T14:23:17;21.48;;;13.15;;
20637;SDS011;10478;49.004;8.470;2024-03-02T14:25:42;13.77;;;7.85;;
20637;SDS011;10478;49.004;8.470;2024-03-02T14:28:07;6.60;;;3.47;;
20637;SDS011;10478;49.004;8.470;2024-03-02T14:30:32;15.07;;;8.43;;
20637;SDS011;10478;49.004;8.470;2024-03-02T14:32:59;6.60;;;4.32;;
20637;SDS011;10478;49.004;8.470;2024-03-02T14:35:25;5.78;;;3.10;;
20637;SDS011;10478;49.004;8.470;2024-03-02T14:37:50;7.43;;;5.35;;
20637;SDS011;10478;49.004;8.470;2024-03-02T14:40:15;17.40;;;9.80;;
20637;SDS011;10478;49.004;8.470;2024-03-02T14:42:41;9.50;;;4.30;;
20637;SDS011;10478;49.004;8.470;2024-03-02T14:45:07;9.93;;;5.85;;
20637;SDS011;10478;49.004;8.470;2024-03-02T14:47:32;6.28;;;3.03;;
20637;SDS011;10478;49.004;8.470;2024-03-02T14:49:58;8.23;;;5.45;;
20637;SDS011;10478;49.004;8.470;2024-03-02T14:52:24;6.45;;;2.85;;
20637;SDS011;10478;49.004;8.470;2024-03-02T14:54:49;1.50;;;0.70;;
20637;SDS011;10478;49.004;8.470;2024-03-02T14:57:15;2.58;;;0.63;;
20637;SDS011;10478;49.004;8.470;2024-03-02T14:59:40;0.93;;;0.52;;